createdAt,value
2022-10-15T00:01:28.189Z,17.67
2022-10-15T00:03:54.971Z,20.85
2022-10-15T00:06:21.784Z,18.75
2022-10-15T00:08:48.890Z,15.68
2022-10-15T00:11:18.296Z,16.60
2022-10-15T00:13:45.438Z,18.35
2022-10-15T00:16:17.512Z,17.17
2022-10-15T00:18:44.319Z,18.02
2022-10-15T00:21:12.792Z,21.10
2022-10-15T00:23:39.892Z,22.00
2022-10-15T00:26:12.805Z,20.10
2022-10-15T00:28:41.125Z,18.83
2022-10-15T00:31:11.319Z,18.67
2022-10-15T00:33:38.153Z,21.67
2022-10-15T00:36:08.083Z,19.20
2022-10-15T00:38:35.469Z,19.60
2022-10-15T00:41:05.315Z,18.70
2022-10-15T00:43:47.409Z,19.65
2022-10-15T00:46:27.383Z,20.33
2022-10-15T00:51:33.871Z,21.17
2022-10-15T00:54:00.716Z,21.98
2022-10-15T00:56:27.923Z,18.45
2022-10-15T00:58:55.431Z,19.95
2022-10-15T01:01:23.324Z,21.27
2022-10-15T01:03:50.023Z,23.00
2022-10-15T01:06:16.871Z,21.08
2022-10-15T01:08:43.621Z,24.33
2022-10-15T01:11:29.482Z,23.10
2022-10-15T01:14:36.732Z,22.30
2022-10-15T01:17:18.410Z,22.92
2022-10-15T01:20:29.528Z,23.27
2022-10-15T01:23:28.998Z,22.38
2022-10-15T01:26:11.142Z,24.27
2022-10-15T01:28:43.268Z,24.45
2022-10-15T01:31:36.237Z,24.00
2022-10-15T01:34:26.475Z,25.00
2022-10-15T01:37:09.470Z,23.60
2022-10-15T01:39:45.175Z,24.67
2022-10-15T01:42:19.749Z,26.27
2022-10-15T01:44:51.722Z,25.00
2022-10-15T01:47:23.238Z,30.65
2022-10-15T01:49:52.845Z,26.98
2022-10-15T01:52:28.359Z,30.50
2022-10-15T01:54:55.338Z,29.05
2022-10-15T01:57:25.091Z,28.38
2022-10-15T01:59:52.697Z,26.05
2022-10-15T02:02:19.470Z,26.65
2022-10-15T02:04:46.139Z,26.73
2022-10-15T02:07:37.822Z,25.30
2022-10-15T02:10:19.573Z,26.85
2022-10-15T02:12:54.267Z,24.98
2022-10-15T02:15:48.797Z,28.42
2022-10-15T02:18:24.290Z,27.70
2022-10-15T02:21:15.707Z,24.05
2022-10-15T02:24:03.464Z,29.70
2022-10-15T02:26:30.916Z,26.45
2022-10-15T02:28:59.454Z,23.02
2022-10-15T02:31:29.960Z,24.90
2022-10-15T02:33:58.822Z,25.58
2022-10-15T02:36:25.584Z,26.05
2022-10-15T02:38:55.023Z,26.27
2022-10-15T02:41:21.709Z,27.08
2022-10-15T02:43:48.805Z,27.67
2022-10-15T02:46:16.564Z,30.13
2022-10-15T02:48:43.214Z,27.17
2022-10-15T02:51:09.829Z,27.55
2022-10-15T02:53:36.477Z,29.38
2022-10-15T02:56:03.190Z,30.45
2022-10-15T02:58:30.917Z,23.90
2022-10-15T03:00:57.611Z,27.38
2022-10-15T03:03:24.259Z,26.60
2022-10-15T03:05:50.975Z,26.55
2022-10-15T03:08:17.577Z,26.02
2022-10-15T03:10:45.682Z,30.17
2022-10-15T03:13:12.520Z,26.58
2022-10-15T03:15:39.286Z,30.05
2022-10-15T03:18:06.240Z,25.63
2022-10-15T03:20:32.883Z,27.55
2022-10-15T03:22:59.508Z,28.60
2022-10-15T03:25:26.113Z,28.00
2022-10-15T03:27:59.553Z,27.75
2022-10-15T03:30:26.359Z,32.03
2022-10-15T03:32:53.014Z,29.35
2022-10-15T03:35:19.588Z,29.15
2022-10-15T03:37:46.172Z,28.40
2022-10-15T03:40:13.709Z,30.48
2022-10-15T03:42:41.428Z,28.85
2022-10-15T03:45:08.686Z,28.92
2022-10-15T03:47:35.488Z,27.77
2022-10-15T03:50:02.177Z,27.75
2022-10-15T03:52:28.771Z,32.55
2022-10-15T03:54:55.387Z,31.08
2022-10-15T03:57:22.012Z,27.75
2022-10-15T03:59:48.611Z,30.08
2022-10-15T04:02:15.479Z,29.35
2022-10-15T04:04:42.058Z,26.70
2022-10-15T04:07:08.735Z,27.38
2022-10-15T04:09:35.374Z,27.70
2022-10-15T04:12:01.990Z,35.83
2022-10-15T04:14:28.789Z,31.85
2022-10-15T04:16:56.428Z,28.88
2022-10-15T04:19:23.169Z,33.38
2022-10-15T04:21:49.795Z,29.08
2022-10-15T04:24:16.502Z,28.33
2022-10-15T04:26:43.288Z,29.77
2022-10-15T04:29:10.942Z,31.30
2022-10-15T04:31:45.818Z,34.47
2022-10-15T04:34:12.522Z,29.27
2022-10-15T04:36:39.321Z,29.65
2022-10-15T04:39:08.658Z,31.42
2022-10-15T04:41:37.586Z,30.45
2022-10-15T04:44:04.327Z,29.90
2022-10-15T04:46:34.017Z,33.63
2022-10-15T04:49:00.696Z,30.65
2022-10-15T04:51:27.415Z,33.42
2022-10-15T04:53:54.959Z,29.90
2022-10-15T04:56:22.348Z,31.98
2022-10-15T04:58:50.054Z,31.92
2022-10-15T05:01:18.734Z,30.33
2022-10-15T05:03:46.690Z,28.23
2022-10-15T05:06:18.326Z,29.50
2022-10-15T05:08:45.589Z,28.02
2022-10-15T05:12:03.757Z,29.27
2022-10-15T05:14:30.387Z,27.92
2022-10-15T05:16:57.026Z,28.13
2022-10-15T05:19:23.790Z,30.98
2022-10-15T05:21:53.753Z,29.27
2022-10-15T05:24:30.139Z,28.05
2022-10-15T05:27:01.825Z,32.58
2022-10-15T05:30:21.746Z,31.00
2022-10-15T05:32:53.059Z,31.88
2022-10-15T05:35:20.160Z,28.45
2022-10-15T05:37:47.273Z,34.58
2022-10-15T05:40:18.278Z,33.38
2022-10-15T05:45:19.496Z,31.02
2022-10-15T05:47:46.233Z,30.52
2022-10-15T05:50:13.335Z,29.85
2022-10-15T05:52:40.533Z,31.98
2022-10-15T05:55:07.837Z,30.23
2022-10-15T05:57:34.754Z,30.30
2022-10-15T06:00:02.071Z,30.20
2022-10-15T06:02:29.655Z,27.88
2022-10-15T06:04:56.789Z,29.85
2022-10-15T06:07:23.893Z,27.25
2022-10-15T06:09:50.733Z,27.40
2022-10-15T06:12:17.442Z,25.23
2022-10-15T06:14:44.134Z,28.00
2022-10-15T06:17:10.860Z,25.00
2022-10-15T06:19:37.569Z,28.33
2022-10-15T06:22:04.372Z,26.80
2022-10-15T06:24:31.384Z,24.63
2022-10-15T06:27:04.587Z,32.35
2022-10-15T06:29:31.415Z,33.40
2022-10-15T06:31:58.150Z,25.95
2022-10-15T06:34:25.999Z,30.85
2022-10-15T06:36:53.224Z,27.27
2022-10-15T06:39:20.060Z,29.17
2022-10-15T06:41:46.834Z,33.00
2022-10-15T06:44:13.650Z,28.27
2022-10-15T06:46:40.480Z,30.95
2022-10-15T06:49:07.467Z,31.42
2022-10-15T06:51:34.583Z,29.60
2022-10-15T06:54:01.382Z,29.40
2022-10-15T06:56:28.220Z,30.50
2022-10-15T06:58:55.019Z,30.40
2022-10-15T07:01:22.901Z,27.67
2022-10-15T07:03:52.628Z,68.32
2022-10-15T07:06:19.442Z,30.70
2022-10-15T07:08:46.195Z,35.38
2022-10-15T07:11:13.096Z,29.90
2022-10-15T07:13:40.200Z,27.88
2022-10-15T07:16:08.682Z,25.45
2022-10-15T07:18:38.518Z,26.23
2022-10-15T07:21:06.656Z,27.85
2022-10-15T07:23:33.407Z,28.02
2022-10-15T07:26:01.051Z,25.20
2022-10-15T07:28:27.825Z,23.08
2022-10-15T07:30:54.567Z,26.30
2022-10-15T07:33:21.253Z,24.70
2022-10-15T07:35:48.388Z,22.02
2022-10-15T07:38:15.101Z,22.83
2022-10-15T07:40:41.885Z,23.15
2022-10-15T07:43:08.616Z,22.50
2022-10-15T07:45:36.309Z,22.08
2022-10-15T07:48:05.111Z,22.50
2022-10-15T07:50:35.430Z,20.98
2022-10-15T07:53:03.867Z,21.88
2022-10-15T07:55:30.648Z,22.58
2022-10-15T07:57:58.582Z,21.15
2022-10-15T08:00:25.331Z,20.67
2022-10-15T08:02:52.098Z,19.80
2022-10-15T08:05:18.799Z,17.38
2022-10-15T08:07:45.503Z,22.02
2022-10-15T08:10:13.518Z,17.83
2022-10-15T08:12:40.241Z,21.15
2022-10-15T08:15:07.790Z,17.88
2022-10-15T08:17:34.439Z,20.85
2022-10-15T08:20:01.296Z,16.23
2022-10-15T08:22:27.983Z,18.75
2022-10-15T08:24:54.777Z,19.80
2022-10-15T08:27:21.492Z,18.77
2022-10-15T08:29:48.414Z,19.08
2022-10-15T08:32:15.269Z,20.52
2022-10-15T08:34:42.163Z,18.15
2022-10-15T08:37:09.191Z,16.98
2022-10-15T08:39:36.743Z,16.55
2022-10-15T08:42:37.931Z,15.77
2022-10-15T08:45:16.459Z,17.70
2022-10-15T08:47:49.370Z,18.38
2022-10-15T08:50:51.764Z,18.25
2022-10-15T08:53:22.520Z,17.95
2022-10-15T08:55:51.604Z,17.35
2022-10-15T08:58:27.028Z,16.65
2022-10-15T09:01:12.526Z,16.17
2022-10-15T09:04:05.665Z,16.25
2022-10-15T09:06:39.479Z,16.05
2022-10-15T09:09:48.307Z,18.77
2022-10-15T09:12:45.179Z,16.48
2022-10-15T09:15:18.284Z,14.55
2022-10-15T09:17:47.616Z,14.20
2022-10-15T09:20:20.126Z,16.23
2022-10-15T09:22:51.060Z,14.80
2022-10-15T09:25:25.546Z,14.50
2022-10-15T09:27:55.338Z,13.73
2022-10-15T09:30:35.874Z,13.35
2022-10-15T09:33:25.308Z,13.07
2022-10-15T09:36:05.697Z,13.15
2022-10-15T09:39:12.734Z,14.60
2022-10-15T09:42:23.749Z,15.27
2022-10-15T09:44:54.458Z,13.95
2022-10-15T09:47:27.432Z,13.93
2022-10-15T09:49:54.242Z,15.02
2022-10-15T09:52:35.731Z,13.57
2022-10-15T09:55:31.846Z,12.18
2022-10-15T09:58:03.646Z,15.85
2022-10-15T10:00:52.265Z,13.00
2022-10-15T10:03:24.696Z,13.75
2022-10-15T10:05:51.807Z,16.48
2022-10-15T10:08:26.095Z,14.27
2022-10-15T10:11:11.211Z,15.13
2022-10-15T10:13:41.742Z,14.90
2022-10-15T10:16:10.533Z,13.45
2022-10-15T10:18:37.867Z,14.88
2022-10-15T10:21:27.160Z,15.30
2022-10-15T10:23:54.166Z,14.15
2022-10-15T10:26:21.227Z,13.55
2022-10-15T10:28:57.015Z,11.63
2022-10-15T10:31:29.498Z,11.50
2022-10-15T10:33:56.913Z,11.02
2022-10-15T10:36:35.314Z,11.60
2022-10-15T10:39:14.126Z,12.18
2022-10-15T10:41:51.344Z,12.57
2022-10-15T10:44:21.169Z,13.77
2022-10-15T10:47:06.485Z,10.88
2022-10-15T10:49:44.378Z,9.57
2022-10-15T10:52:32.482Z,10.55
2022-10-15T10:55:12.918Z,10.75
2022-10-15T10:57:50.126Z,8.85
2022-10-15T11:00:20.733Z,7.65
2022-10-15T11:03:03.729Z,9.00
2022-10-15T11:05:33.639Z,9.93
2022-10-15T11:08:19.180Z,8.20
2022-10-15T11:10:56.787Z,8.57
2022-10-15T11:13:35.065Z,10.45
2022-10-15T11:16:07.809Z,8.35
2022-10-15T11:18:34.521Z,8.98
2022-10-15T11:21:22.139Z,7.35
2022-10-15T11:24:15.261Z,7.00
2022-10-15T11:26:59.160Z,6.47
2022-10-15T11:29:42.088Z,8.25
2022-10-15T11:32:26.074Z,6.20
2022-10-15T11:35:41.013Z,5.95
2022-10-15T11:38:25.898Z,7.38
2022-10-15T11:41:11.506Z,7.88
2022-10-15T11:44:13.046Z,8.13
2022-10-15T11:46:49.866Z,8.70
2022-10-15T11:49:38.582Z,6.68
2022-10-15T11:52:42.187Z,7.65
2022-10-15T11:55:17.531Z,6.15
2022-10-15T11:57:45.725Z,7.05
2022-10-15T12:00:39.739Z,6.75
2022-10-15T12:03:19.836Z,7.68
2022-10-15T12:06:10.444Z,5.70
2022-10-15T12:08:41.755Z,7.88
2022-10-15T12:11:41.464Z,6.63
2022-10-15T12:14:39.307Z,6.57
2022-10-15T12:17:16.989Z,6.30
2022-10-15T12:19:51.808Z,7.78
2022-10-15T12:22:40.629Z,8.07
2022-10-15T12:25:38.433Z,7.40
2022-10-15T12:28:19.005Z,7.03
2022-10-15T12:30:58.044Z,6.30
2022-10-15T12:33:29.892Z,6.07
2022-10-15T12:35:58.715Z,7.85
2022-10-15T12:38:27.220Z,5.60
2022-10-15T12:40:55.902Z,5.47
2022-10-15T12:43:22.816Z,5.10
2022-10-15T12:45:52.821Z,7.13
2022-10-15T12:48:24.061Z,6.63
2022-10-15T12:51:16.085Z,6.40
2022-10-15T12:53:44.521Z,7.10
2022-10-15T12:56:19.972Z,6.88
2022-10-15T12:58:52.124Z,7.38
2022-10-15T13:01:21.982Z,5.88
2022-10-15T13:03:48.723Z,5.93
2022-10-15T13:06:21.476Z,7.20
2022-10-15T13:08:52.338Z,7.22
2022-10-15T13:11:29.159Z,5.60
2022-10-15T13:14:00.741Z,9.40
2022-10-15T13:16:27.753Z,6.57
2022-10-15T13:18:56.787Z,8.60
2022-10-15T13:21:50.722Z,6.13
2022-10-15T13:24:19.398Z,8.15
2022-10-15T13:26:46.193Z,7.68
2022-10-15T13:29:25.014Z,5.80
2022-10-15T13:31:54.548Z,6.00
2022-10-15T13:34:32.725Z,5.47
2022-10-15T13:37:01.144Z,6.07
2022-10-15T13:39:35.632Z,6.47
2022-10-15T13:42:16.011Z,7.15
2022-10-15T13:44:44.772Z,6.15
2022-10-15T13:47:31.017Z,8.90
2022-10-15T13:50:21.514Z,7.40
2022-10-15T13:52:52.926Z,5.65
2022-10-15T13:55:25.520Z,5.85
2022-10-15T13:57:58.629Z,4.95
2022-10-15T14:00:28.595Z,5.43
2022-10-15T14:03:07.670Z,6.05
2022-10-15T14:05:34.563Z,8.57
2022-10-15T14:08:01.796Z,6.82
2022-10-15T14:10:28.708Z,5.80
2022-10-15T14:12:55.812Z,7.15
2022-10-15T14:15:53.003Z,6.32
2022-10-15T14:18:33.635Z,5.63
2022-10-15T14:21:00.841Z,6.53
2022-10-15T14:23:28.363Z,6.18
2022-10-15T14:26:02.868Z,8.05
2022-10-15T14:28:31.967Z,7.40
2022-10-15T14:31:01.202Z,5.90
2022-10-15T14:33:31.473Z,5.25
2022-10-15T14:36:23.121Z,5.75
2022-10-15T14:38:52.033Z,5.78
2022-10-15T14:41:29.213Z,5.43
2022-10-15T14:44:06.142Z,6.28
2022-10-15T14:46:45.531Z,6.07
2022-10-15T14:49:35.781Z,6.60
2022-10-15T14:52:08.681Z,6.72
2022-10-15T14:54:39.675Z,5.97
2022-10-15T14:57:16.532Z,7.72
2022-10-15T14:59:43.388Z,6.63
2022-10-15T15:02:15.073Z,7.57
2022-10-15T15:04:44.775Z,7.10
2022-10-15T15:07:21.019Z,6.38
2022-10-15T15:09:48.834Z,5.90
2022-10-15T15:12:27.640Z,6.03
2022-10-15T15:14:55.081Z,5.65
2022-10-15T15:17:24.447Z,7.03
2022-10-15T15:19:53.253Z,5.90
2022-10-15T15:22:28.137Z,6.13
2022-10-15T15:24:55.734Z,5.65
2022-10-15T15:27:26.528Z,6.07
2022-10-15T15:29:53.840Z,6.80
2022-10-15T15:32:21.783Z,6.03
2022-10-15T15:34:49.376Z,6.07
2022-10-15T15:37:24.249Z,8.82
2022-10-15T15:39:51.019Z,6.88
2022-10-15T15:42:20.338Z,7.40
2022-10-15T15:44:50.097Z,6.72
2022-10-15T15:47:17.090Z,7.10
2022-10-15T15:49:43.805Z,8.20
2022-10-15T15:52:19.020Z,7.85
2022-10-15T15:54:46.590Z,6.30
2022-10-15T15:57:13.877Z,6.10
2022-10-15T15:59:40.698Z,9.60
2022-10-15T16:02:07.459Z,8.35
2022-10-15T16:04:34.330Z,8.45
2022-10-15T16:07:01.042Z,7.00
2022-10-15T16:09:27.915Z,6.13
2022-10-15T16:11:54.565Z,7.13
2022-10-15T16:14:21.264Z,6.70
2022-10-15T16:16:48.464Z,8.80
2022-10-15T16:19:15.482Z,8.07
2022-10-15T16:21:42.198Z,7.68
2022-10-15T16:24:08.892Z,8.60
2022-10-15T16:26:38.349Z,6.90
2022-10-15T16:29:06.026Z,7.30
2022-10-15T16:31:36.562Z,8.43
2022-10-15T16:34:06.496Z,6.82
2022-10-15T16:36:33.206Z,9.13
2022-10-15T16:38:59.928Z,6.78
2022-10-15T16:41:26.640Z,8.48
2022-10-15T16:43:53.345Z,7.60
2022-10-15T16:46:20.326Z,7.55
2022-10-15T16:48:52.193Z,6.90
2022-10-15T16:51:18.844Z,8.77
2022-10-15T16:53:48.391Z,11.05
2022-10-15T16:56:20.051Z,10.93
2022-10-15T16:58:46.956Z,9.00
2022-10-15T17:01:16.023Z,8.00
2022-10-15T17:03:43.790Z,7.40
2022-10-15T17:06:13.111Z,7.95
2022-10-15T17:08:48.351Z,8.15
2022-10-15T17:11:20.195Z,10.27
2022-10-15T17:13:48.024Z,8.90
2022-10-15T17:16:23.402Z,7.60
2022-10-15T17:21:27.195Z,7.82
2022-10-15T17:23:55.337Z,9.70
2022-10-15T17:26:25.231Z,7.40
2022-10-15T17:28:52.311Z,8.70
2022-10-15T17:31:24.423Z,8.32
2022-10-15T17:33:56.208Z,9.57
2022-10-15T17:36:23.149Z,10.50
2022-10-15T17:38:49.803Z,13.23
2022-10-15T17:41:21.354Z,13.23
2022-10-15T17:43:48.952Z,12.20
2022-10-15T17:46:21.030Z,13.32
2022-10-15T17:48:48.234Z,19.33
2022-10-15T17:51:17.393Z,18.52
2022-10-15T17:53:44.483Z,18.58
2022-10-15T17:56:11.440Z,15.48
2022-10-15T17:58:38.691Z,19.08
2022-10-15T18:01:05.902Z,15.55
2022-10-15T18:03:32.713Z,13.38
2022-10-15T18:06:06.255Z,15.07
2022-10-15T18:08:32.909Z,12.68
2022-10-15T18:10:59.877Z,11.13
2022-10-15T18:13:26.652Z,10.25
2022-10-15T18:15:55.195Z,11.45
2022-10-15T18:18:21.994Z,8.68
2022-10-15T18:20:48.873Z,7.38
2022-10-15T18:23:15.698Z,8.68
2022-10-15T18:25:42.348Z,8.60
2022-10-15T18:28:09.244Z,8.10
2022-10-15T18:30:37.192Z,7.30
2022-10-15T18:33:04.443Z,6.82
2022-10-15T18:35:34.617Z,6.55
2022-10-15T18:38:01.407Z,7.30
2022-10-15T18:40:28.149Z,7.22
2022-10-15T18:42:54.754Z,6.82
2022-10-15T18:45:21.358Z,9.98
2022-10-15T18:47:47.955Z,10.55
2022-10-15T18:50:14.573Z,6.88
2022-10-15T18:52:41.572Z,7.03
2022-10-15T18:55:08.813Z,7.35
2022-10-15T18:57:35.482Z,7.10
2022-10-15T19:00:02.138Z,8.25
2022-10-15T19:02:29.069Z,8.82
2022-10-15T19:04:55.858Z,8.43
2022-10-15T19:07:22.648Z,9.18
2022-10-15T19:09:49.301Z,8.40
2022-10-15T19:12:16.032Z,9.32
2022-10-15T19:14:44.260Z,7.45
2022-10-15T19:17:10.956Z,9.63
2022-10-15T19:19:38.694Z,8.73
2022-10-15T19:22:06.093Z,9.23
2022-10-15T19:24:32.868Z,10.25
2022-10-15T19:26:59.687Z,8.60
2022-10-15T19:29:29.287Z,8.32
2022-10-15T19:31:58.473Z,8.60
2022-10-15T19:34:25.122Z,9.40
2022-10-15T19:36:51.835Z,9.82
2022-10-15T19:39:21.244Z,10.85
2022-10-15T19:41:48.462Z,9.15
2022-10-15T19:44:17.697Z,11.05
2022-10-15T19:46:48.092Z,12.55
2022-10-15T19:49:15.077Z,11.55
2022-10-15T19:51:42.133Z,12.25
2022-10-15T19:54:08.900Z,12.23
2022-10-15T19:56:35.874Z,12.73
2022-10-15T19:59:05.305Z,11.00
2022-10-15T20:01:32.753Z,13.25
2022-10-15T20:04:04.802Z,10.50
2022-10-15T20:06:33.840Z,21.27
2022-10-15T20:09:02.312Z,14.38
2022-10-15T20:11:29.029Z,16.45
2022-10-15T20:13:55.714Z,15.02
2022-10-15T20:16:23.365Z,15.45
2022-10-15T20:18:51.086Z,12.40
2022-10-15T20:21:17.829Z,15.48
2022-10-15T20:23:45.524Z,14.02
2022-10-15T20:26:13.876Z,13.10
2022-10-15T20:28:42.158Z,14.35
2022-10-15T20:31:11.774Z,13.65
2022-10-15T20:33:40.328Z,11.27
2022-10-15T20:36:14.631Z,10.50
2022-10-15T20:38:42.695Z,11.43
2022-10-15T20:41:11.215Z,10.35
2022-10-15T20:43:37.995Z,12.63
2022-10-15T20:46:11.534Z,11.77
2022-10-15T20:48:39.630Z,9.80
2022-10-15T20:51:07.734Z,11.05
2022-10-15T20:53:35.187Z,11.93
2022-10-15T20:56:01.940Z,12.65
2022-10-15T20:58:30.862Z,10.75
2022-10-15T21:00:57.955Z,9.80
2022-10-15T21:03:25.467Z,9.63
2022-10-15T21:05:52.387Z,9.30
2022-10-15T21:08:19.028Z,9.48
2022-10-15T21:10:45.661Z,10.10
2022-10-15T21:13:12.287Z,8.77
2022-10-15T21:15:39.102Z,9.50
2022-10-15T21:18:05.782Z,8.35
2022-10-15T21:20:32.370Z,9.32
2022-10-15T21:22:59.005Z,9.48
2022-10-15T21:25:25.788Z,10.52
2022-10-15T21:27:52.446Z,9.07
2022-10-15T21:30:19.117Z,10.45
2022-10-15T21:32:45.764Z,7.93
2022-10-15T21:35:12.405Z,9.00
2022-10-15T21:37:39.203Z,8.30
2022-10-15T21:40:07.640Z,7.35
2022-10-15T21:42:34.514Z,7.78
2022-10-15T21:45:04.043Z,8.93
2022-10-15T21:47:31.818Z,7.95
2022-10-15T21:49:58.466Z,8.85
2022-10-15T21:52:27.631Z,7.95
2022-10-15T21:54:55.327Z,6.90
2022-10-15T21:57:22.129Z,8.07
2022-10-15T21:59:49.176Z,6.97
2022-10-15T22:10:56.014Z,6.63
2022-10-15T22:13:22.675Z,7.78
2022-10-15T22:15:49.373Z,8.05
2022-10-15T22:18:16.012Z,7.35
2022-10-15T22:20:42.598Z,8.45
2022-10-15T22:23:09.266Z,8.57
2022-10-15T22:25:36.203Z,7.55
2022-10-15T22:28:04.534Z,7.20
2022-10-15T22:30:31.165Z,7.90
2022-10-15T22:32:57.804Z,6.43
2022-10-15T22:35:24.429Z,6.60
2022-10-15T22:37:52.933Z,6.50
2022-10-15T22:40:19.529Z,6.78
2022-10-15T22:42:46.491Z,6.63
2022-10-15T22:45:13.104Z,7.75
2022-10-15T22:47:40.174Z,6.68
2022-10-15T22:50:07.209Z,8.05
2022-10-15T22:52:33.984Z,7.20
2022-10-15T22:55:00.844Z,6.40
2022-10-15T22:57:27.487Z,5.90
2022-10-15T22:59:57.170Z,6.40
2022-10-15T23:02:26.281Z,6.40
2022-10-15T23:04:53.158Z,5.82
2022-10-15T23:07:19.849Z,6.35
2022-10-15T23:09:49.506Z,5.50
2022-10-15T23:12:16.185Z,6.53
2022-10-15T23:14:42.863Z,6.13
2022-10-15T23:17:09.520Z,5.82
2022-10-15T23:19:36.102Z,5.10
2022-10-15T23:22:03.455Z,6.15
2022-10-15T23:24:30.900Z,6.15
2022-10-15T23:26:57.751Z,6.45
2022-10-15T23:29:25.489Z,5.75
2022-10-15T23:31:53.708Z,5.15
2022-10-15T23:34:22.842Z,6.00
2022-10-15T23:36:50.093Z,5.40
2022-10-15T23:39:19.113Z,4.90
2022-10-15T23:41:46.024Z,6.00
2022-10-15T23:44:12.687Z,5.72
2022-10-15T23:46:39.488Z,4.78
2022-10-15T23:49:06.331Z,4.95
2022-10-15T23:51:34.741Z,5.53
2022-10-15T23:54:02.786Z,5.25
2022-10-15T23:56:32.477Z,6.07
2022-10-15T23:59:00.333Z,5.00
